Time;durP1;ratioP1;P1;durP2;ratioP2;P2;SDS_P1;SDS_P2;PMS_P1;PMS_P2;Temp;Humidity;BMP_temperature;BMP_pressure;BME280_temperature;BME280_humidity;BME280_pressure;Samples;Min_cycle;Max_cycle;Signal;HPM_P1;HPM_P2
2022/12/14 09:54:47;;;;;;;0.10;0.10;;;0.10;98.50;;;;;;2129356;27;20360;-79
2022/12/14 09:55:55;;;;;;;0.10;0.10;;;0.20;98.40;;;;;;2119262;28;20020;-79
2022/12/14 09:57:03;;;;;;;0.10;0.10;;;0.20;98.80;;;;;;2109228;28;20020;-79
2022/12/14 09:58:20;;;;;;;0.28;0.28;;;0.20;98.90;;;;;;2091560;28;20029;-79
2022/12/14 09:59:23;;;;;;;0.30;0.30;;;0.20;99.40;;;;;;2092612;28;20460;-79
2022/12/14 10:00:25;;;;;;;7.43;2.15;;;0.10;99.50;;;;;;2099482;28;20134;-79
2022/12/14 10:01:46;;;;;;;0.77;0.77;;;0.10;99.40;;;;;;2099007;28;20074;-79
2022/12/14 10:03:24;;;;;;;2.60;0.75;;;0.10;99.40;;;;;;2095246;28;20504;-79
2022/12/14 10:04:26;;;;;;;1.45;1.05;;;0.10;99.40;;;;;;2104208;28;20024;-79
2022/12/14 10:05:41;;;;;;;0.10;0.10;;;0.10;99.50;;;;;;2098334;28;20085;-80
2022/12/14 10:07:15;;;;;;;3.70;1.48;;;0.10;99.70;;;;;;2100054;28;20102;-79
2022/12/14 10:08:27;;;;;;;3.22;1.30;;;0.00;99.40;;;;;;2081333;28;20033;-80
2022/12/14 10:09:42;;;;;;;0.55;0.52;;;0.00;99.30;;;;;;2096823;28;20359;-79
2022/12/14 10:11:10;;;;;;;0.25;0.25;;;0.00;99.00;;;;;;2100433;28;20099;-82
2022/12/14 10:12:19;;;;;;;5.97;2.33;;;0.00;99.40;;;;;;2092127;28;20044;-81
2022/12/14 10:13:35;;;;;;;2.60;0.85;;;0.00;99.50;;;;;;2100905;28;20028;-79
2022/12/14 10:14:44;;;;;;;2.75;1.05;;;0.00;99.50;;;;;;2102925;28;20398;-82
2022/12/14 10:15:52;;;;;;;0.40;0.40;;;0.00;99.40;;;;;;2105316;28;20064;-81
2022/12/14 10:17:10;;;;;;;2.78;0.95;;;0.00;99.60;;;;;;2111153;28;20029;-82
2022/12/14 10:18:35;;;;;;;2.60;0.77;;;0.00;99.60;;;;;;2107434;28;20055;-82
2022/12/14 10:19:51;;;;;;;5.60;0.95;;;0.00;99.00;;;;;;2112095;28;20020;-82
2022/12/14 10:21:24;;;;;;;0.85;0.80;;;0.00;99.20;;;;;;2104004;28;20035;-82
2022/12/14 10:22:30;;;;;;;0.45;0.45;;;0.00;99.00;;;;;;2096439;28;20037;-82
2022/12/14 10:23:31;;;;;;;1.02;1.00;;;0.00;99.10;;;;;;2102939;28;20024;-82
2022/12/14 10:24:41;;;;;;;2.25;0.90;;;0.00;99.20;;;;;;2109829;28;20034;-82
2022/12/14 10:25:45;;;;;;;2.85;1.30;;;0.00;99.00;;;;;;2102082;28;20037;-82
2022/12/14 10:26:51;;;;;;;2.05;1.48;;;0.00;99.10;;;;;;2108429;28;20025;-82
2022/12/14 10:28:06;;;;;;;5.22;1.23;;;0.00;99.30;;;;;;2100912;28;20111;-82
2022/12/14 10:29:21;;;;;;;0.40;0.40;;;0.00;99.40;;;;;;2110018;28;20059;-82
2022/12/14 10:30:22;;;;;;;0.10;0.10;;;0.00;99.80;;;;;;2100712;28;20135;-83
2022/12/14 10:31:45;;;;;;;0.83;0.80;;;0.00;99.50;;;;;;2100572;28;20051;-82
2022/12/14 10:32:51;;;;;;;2.20;1.70;;;0.00;99.40;;;;;;2103597;28;20024;-82
2022/12/14 10:34:01;;;;;;;8.90;0.77;;;0.00;99.60;;;;;;2100992;28;20032;-82
2022/12/14 10:35:19;;;;;;;0.98;0.98;;;0.00;99.60;;;;;;2093976;28;20022;-82
2022/12/14 10:36:28;;;;;;;1.13;0.50;;;0.00;99.30;;;;;;2096570;28;20033;-82
2022/12/14 10:37:36;;;;;;;1.85;1.33;;;-0.10;99.20;;;;;;2094189;28;20025;-82
2022/12/14 10:38:57;;;;;;;2.53;1.60;;;-0.10;98.80;;;;;;2085957;28;20026;-82
2022/12/14 10:40:21;;;;;;;1.15;0.93;;;-0.10;99.00;;;;;;2087582;28;20025;-82
2022/12/14 10:41:50;;;;;;;1.45;0.77;;;0.00;99.20;;;;;;2099133;28;20028;-82
2022/12/14 10:43:14;;;;;;;1.83;1.33;;;0.00;99.10;;;;;;2099826;28;20020;-82
2022/12/14 10:44:53;;;;;;;1.60;1.02;;;-0.10;99.00;;;;;;2095394;28;20455;-82
2022/12/14 10:46:04;;;;;;;0.45;0.45;;;-0.10;99.00;;;;;;2075846;28;20034;-82
2022/12/14 10:47:32;;;;;;;0.35;0.35;;;0.00;99.00;;;;;;2077459;28;20037;-82
2022/12/14 10:48:56;;;;;;;0.88;0.50;;;0.00;99.00;;;;;;2075834;28;20496;-82
2022/12/14 10:50:34;;;;;;;1.70;1.13;;;0.00;99.20;;;;;;2078703;28;20034;-82
2022/12/14 10:51:42;;;;;;;1.15;1.05;;;-0.10;98.90;;;;;;2081048;28;20107;-82
2022/12/14 10:52:45;;;;;;;0.68;0.60;;;0.00;99.30;;;;;;2094647;28;20045;-82
2022/12/14 10:53:51;;;;;;;9.18;1.40;;;-0.10;98.80;;;;;;2100668;28;20459;-82
2022/12/14 10:54:57;;;;;;;1.42;0.85;;;0.00;99.00;;;;;;2101474;28;20131;-82
2022/12/14 10:56:07;;;;;;;0.28;0.28;;;-0.10;99.50;;;;;;2095889;28;20067;-83
2022/12/14 10:57:25;;;;;;;0.85;0.30;;;-0.10;98.70;;;;;;2087355;28;20014;-82
2022/12/14 10:58:33;;;;;;;1.27;1.20;;;-0.10;99.10;;;;;;2100175;28;20009;-83
2022/12/14 10:59:39;;;;;;;1.30;0.93;;;-0.10;98.90;;;;;;2106262;28;20043;-83
2022/12/14 11:00:40;;;;;;;1.00;1.00;;;-0.10;98.80;;;;;;2095334;28;20040;-81
2022/12/14 11:01:43;;;;;;;3.72;0.60;;;-0.10;98.90;;;;;;2102089;28;20032;-82
2022/12/14 11:02:48;;;;;;;1.45;0.80;;;-0.10;99.00;;;;;;2092691;28;20029;-82
2022/12/14 11:03:51;;;;;;;0.80;0.80;;;-0.10;99.10;;;;;;2087131;28;20049;-82
2022/12/14 11:05:11;;;;;;;6.63;1.75;;;-0.10;99.10;;;;;;2085711;28;20030;-82
2022/12/14 11:06:16;;;;;;;1.58;1.48;;;-0.10;99.10;;;;;;2085769;28;20037;-82
2022/12/14 11:07:25;;;;;;;1.55;1.45;;;-0.10;98.90;;;;;;2082546;28;20033;-82
2022/12/14 11:08:44;;;;;;;1.17;0.85;;;-0.10;98.80;;;;;;2082968;28;20028;-82
2022/12/14 11:09:45;;;;;;;2.13;1.92;;;-0.10;98.50;;;;;;2084694;28;20030;-82
2022/12/14 11:10:47;;;;;;;0.50;0.50;;;-0.10;98.90;;;;;;2087891;28;20026;-82
2022/12/14 11:12:11;;;;;;;2.95;1.40;;;-0.10;98.60;;;;;;2088182;28;20072;-82
2022/12/14 11:13:11;;;;;;;0.80;0.80;;;-0.10;98.60;;;;;;2091049;28;20017;-82
2022/12/14 11:14:16;;;;;;;0.50;0.50;;;-0.10;98.40;;;;;;2087083;28;20101;-83
2022/12/14 11:15:34;;;;;;;0.50;0.50;;;-0.10;99.00;;;;;;2088831;28;20025;-82
2022/12/14 11:16:38;;;;;;;1.38;0.85;;;-0.10;98.70;;;;;;2089632;28;20026;-82
2022/12/14 11:17:43;;;;;;;2.70;1.33;;;-0.10;98.80;;;;;;2088571;28;20435;-82
2022/12/14 11:18:56;;;;;;;1.67;1.40;;;-0.10;98.50;;;;;;2089823;28;20021;-82
2022/12/14 11:20:17;;;;;;;1.65;1.27;;;-0.10;98.50;;;;;;2098338;28;20017;-82
2022/12/14 11:21:27;;;;;;;1.88;0.85;;;-0.10;99.00;;;;;;2096316;28;20024;-82
2022/12/14 11:22:27;;;;;;;2.38;1.20;;;-0.10;98.50;;;;;;2088898;28;20072;-82
2022/12/14 11:23:37;;;;;;;6.40;1.70;;;-0.10;98.70;;;;;;2080264;28;20018;-82
2022/12/14 11:24:46;;;;;;;1.92;1.33;;;-0.10;98.70;;;;;;2091254;28;20032;-82
2022/12/14 11:25:53;;;;;;;1.73;0.88;;;-0.10;98.70;;;;;;2096623;28;20041;-82
2022/12/14 11:26:59;;;;;;;0.13;0.13;;;-0.10;98.20;;;;;;2088766;28;20021;-82
2022/12/14 11:28:19;;;;;;;2.00;1.27;;;-0.10;98.30;;;;;;2088808;28;20017;-82
2022/12/14 11:29:30;;;;;;;1.00;0.60;;;-0.10;98.50;;;;;;2083785;28;20041;-82
2022/12/14 11:30:31;;;;;;;1.23;0.95;;;-0.10;98.70;;;;;;2083197;28;20359;-82
2022/12/14 11:31:44;;;;;;;2.38;1.52;;;-0.10;98.40;;;;;;2090451;28;20022;-82
2022/12/14 11:32:47;;;;;;;1.45;1.35;;;-0.10;98.50;;;;;;2091560;28;20419;-82
2022/12/14 11:33:53;;;;;;;2.10;0.70;;;-0.10;98.80;;;;;;2082459;28;20022;-82
2022/12/14 11:34:57;;;;;;;3.28;0.80;;;-0.10;98.50;;;;;;2083202;28;20543;-82
2022/12/14 11:35:58;;;;;;;3.72;0.77;;;-0.10;98.70;;;;;;2090538;28;20026;-81
2022/12/14 11:37:18;;;;;;;2.37;2.20;;;-0.10;98.50;;;;;;2089408;28;20033;-82
2022/12/14 11:38:19;;;;;;;0.63;0.63;;;-0.10;98.60;;;;;;2092582;28;20330;-82
2022/12/14 11:39:22;;;;;;;1.45;1.30;;;-0.10;98.70;;;;;;2090204;28;20041;-82
2022/12/14 11:40:24;;;;;;;1.23;0.85;;;-0.10;99.10;;;;;;2090617;28;20033;-82
2022/12/14 11:41:31;;;;;;;0.80;0.80;;;-0.10;99.00;;;;;;2089047;28;20136;-82
2022/12/14 11:42:32;;;;;;;0.75;0.75;;;-0.10;98.80;;;;;;2089712;28;20029;-82
2022/12/14 11:43:34;;;;;;;1.85;0.73;;;-0.10;98.30;;;;;;2088729;28;20432;-82
2022/12/14 11:44:37;;;;;;;2.92;0.90;;;-0.10;99.20;;;;;;2096757;28;20029;-82
2022/12/14 11:45:39;;;;;;;0.35;0.35;;;-0.10;98.60;;;;;;2096543;28;20052;-82
2022/12/14 11:46:59;;;;;;;2.22;1.55;;;-0.10;98.80;;;;;;2088397;28;20033;-82
2022/12/14 11:48:10;;;;;;;0.85;0.85;;;-0.10;99.00;;;;;;2090828;28;20034;-82
2022/12/14 11:49:32;;;;;;;0.52;0.52;;;-0.10;99.00;;;;;;2082387;28;20030;-82
2022/12/14 11:50:33;;;;;;;7.55;1.75;;;-0.10;99.50;;;;;;2091496;28;20029;-82
2022/12/14 11:51:34;;;;;;;1.93;1.10;;;-0.10;99.50;;;;;;2080713;28;20034;-82
2022/12/14 11:52:37;;;;;;;1.30;0.83;;;-0.10;99.60;;;;;;2080221;28;20061;-82
2022/12/14 11:53:39;;;;;;;1.27;0.90;;;-0.10;99.50;;;;;;2080588;28;20124;-82
2022/12/14 11:54:48;;;;;;;3.08;0.70;;;-0.10;99.20;;;;;;2079369;28;20472;-82
2022/12/14 11:55:58;;;;;;;1.50;1.05;;;-0.10;99.50;;;;;;2087541;28;20180;-81
2022/12/14 11:57:09;;;;;;;5.68;1.10;;;-0.20;99.10;;;;;;2089990;28;20025;-81
2022/12/14 11:58:35;;;;;;;1.08;1.08;;;-0.10;99.50;;;;;;2088879;28;20029;-81
2022/12/14 11:59:41;;;;;;;7.72;1.35;;;-0.20;99.20;;;;;;2079886;28;20043;-82
2022/12/14 12:01:01;;;;;;;0.90;0.65;;;-0.10;99.20;;;;;;2088780;28;20017;-82
2022/12/14 12:02:27;;;;;;;3.13;1.17;;;-0.10;99.10;;;;;;2090136;28;20021;-82
2022/12/14 12:03:58;;;;;;;0.93;0.93;;;-0.10;99.60;;;;;;2086814;28;20037;-82
2022/12/14 12:05:09;;;;;;;1.02;0.60;;;-0.10;99.20;;;;;;2090922;28;20124;-82
2022/12/14 12:06:13;;;;;;;0.50;0.50;;;-0.10;98.70;;;;;;2091239;28;20113;-82
2022/12/14 12:07:24;;;;;;;0.57;0.57;;;-0.10;98.40;;;;;;2096846;28;20029;-82
2022/12/14 12:08:31;;;;;;;3.30;2.05;;;-0.10;98.60;;;;;;2091065;28;20022;-82
2022/12/14 12:09:33;;;;;;;0.80;0.80;;;-0.10;99.10;;;;;;2104134;28;20025;-82
2022/12/14 12:10:42;;;;;;;0.47;0.38;;;-0.10;98.70;;;;;;2104274;28;20120;-83
2022/12/14 12:11:46;;;;;;;0.30;0.30;;;-0.10;98.70;;;;;;2089273;28;20022;-82
2022/12/14 12:12:47;;;;;;;4.00;0.98;;;-0.10;98.50;;;;;;2088462;28;20032;-83
2022/12/14 12:13:55;;;;;;;0.53;0.53;;;-0.10;98.90;;;;;;2088113;28;20049;-82
2022/12/14 12:14:58;;;;;;;0.30;0.30;;;-0.10;98.70;;;;;;2090049;28;20060;-82
2022/12/14 12:16:03;;;;;;;1.33;0.63;;;-0.10;99.00;;;;;;2088001;28;20022;-82
2022/12/14 12:17:18;;;;;;;0.20;0.20;;;0.00;99.20;;;;;;2080888;28;20030;-82
2022/12/14 12:18:26;;;;;;;0.38;0.38;;;-0.10;99.20;;;;;;2092013;28;20100;-82
2022/12/14 12:19:32;;;;;;;1.00;0.95;;;-0.10;99.40;;;;;;2096041;28;20017;-82
2022/12/14 12:20:38;;;;;;;0.80;0.80;;;-0.10;99.30;;;;;;2088747;28;20488;-82
2022/12/14 12:21:43;;;;;;;1.25;0.52;;;-0.10;99.30;;;;;;2081114;28;20032;-82
2022/12/14 12:22:48;;;;;;;0.93;0.93;;;-0.10;99.50;;;;;;2080215;28;20088;-82
2022/12/14 12:24:20;;;;;;;0.50;0.50;;;0.00;99.70;;;;;;2081052;28;20022;-81
2022/12/14 12:25:22;;;;;;;1.55;1.08;;;-0.10;99.20;;;;;;2092025;28;20021;-82
2022/12/14 12:26:38;;;;;;;0.40;0.40;;;-0.10;99.10;;;;;;2088172;28;20030;-82
2022/12/14 12:27:39;;;;;;;2.08;0.77;;;-0.10;99.30;;;;;;2091303;28;20086;-82
2022/12/14 12:29:01;;;;;;;0.82;0.82;;;0.00;99.60;;;;;;2103997;28;20096;-82
2022/12/14 12:30:18;;;;;;;0.10;0.10;;;-0.10;99.40;;;;;;2095602;28;20021;-82
2022/12/14 12:31:26;;;;;;;0.20;0.20;;;-0.10;98.70;;;;;;2092222;28;20091;-81
2022/12/14 12:32:38;;;;;;;0.32;0.32;;;-0.10;99.00;;;;;;2088294;28;20018;-82
2022/12/14 12:33:56;;;;;;;1.15;0.57;;;0.00;99.50;;;;;;2088795;28;20116;-82
2022/12/14 12:35:04;;;;;;;1.55;0.90;;;0.00;99.70;;;;;;2084160;28;20029;-82
2022/12/14 12:36:05;;;;;;;1.67;0.93;;;0.00;99.50;;;;;;2087904;28;20021;-81
2022/12/14 12:37:16;;;;;;;0.20;0.20;;;0.00;99.40;;;;;;2087707;28;20029;-82
2022/12/14 12:38:39;;;;;;;2.92;0.95;;;0.00;99.00;;;;;;2090349;28;20044;-82
2022/12/14 12:39:43;;;;;;;0.68;0.68;;;-0.10;99.10;;;;;;2090440;28;20033;-82
2022/12/14 12:40:59;;;;;;;0.28;0.28;;;0.00;99.30;;;;;;2080901;28;20089;-82
2022/12/14 12:42:05;;;;;;;0.20;0.20;;;0.00;99.40;;;;;;2083545;28;20030;-82
2022/12/14 12:43:32;;;;;;;0.80;0.57;;;0.00;99.10;;;;;;2087284;28;20446;-81
2022/12/14 12:44:39;;;;;;;4.15;1.05;;;0.00;99.10;;;;;;2086841;28;20024;-82
2022/12/14 12:45:46;;;;;;;1.27;0.80;;;0.00;99.10;;;;;;2104595;28;20051;-82
2022/12/14 12:47:16;;;;;;;0.50;0.50;;;0.00;99.40;;;;;;2104300;28;20040;-82
2022/12/14 12:48:33;;;;;;;1.38;1.23;;;0.00;99.00;;;;;;2088129;28;20102;-82
2022/12/14 12:49:34;;;;;;;0.50;0.50;;;0.00;99.20;;;;;;2083234;28;20065;-82
2022/12/14 12:50:38;;;;;;;1.20;0.90;;;0.00;99.30;;;;;;2079842;28;20053;-82
2022/12/14 12:52:19;;;;;;;0.10;0.10;;;0.00;99.10;;;;;;2088495;28;20029;-82
2022/12/14 12:53:29;;;;;;;0.80;0.80;;;0.00;99.10;;;;;;2084447;28;20037;-81
2022/12/14 12:54:37;;;;;;;0.20;0.20;;;0.10;99.10;;;;;;2088646;28;20080;-81
2022/12/14 12:55:52;;;;;;;0.25;0.25;;;0.10;99.10;;;;;;2087831;28;20022;-81
2022/12/14 12:56:59;;;;;;;2.50;1.13;;;0.10;98.90;;;;;;2088867;28;20021;-82
2022/12/14 12:58:01;;;;;;;0.40;0.40;;;0.00;99.00;;;;;;2088579;28;20035;-81
2022/12/14 12:59:04;;;;;;;0.55;0.40;;;0.00;99.00;;;;;;2095213;28;20018;-82
2022/12/14 13:00:06;;;;;;;2.45;0.60;;;0.00;99.10;;;;;;2079432;28;20022;-81
2022/12/14 13:01:16;;;;;;;;;;;0.00;98.90;;;;;;2087312;28;20110;-81
2022/12/14 13:02:29;;;;;;;0.50;0.47;;;0.00;99.00;;;;;;2081710;28;19941;-81
2022/12/14 13:03:37;;;;;;;;;;;0.00;98.80;;;;;;2091037;28;20065;-81
2022/12/14 13:04:40;;;;;;;8.32;1.55;;;0.00;99.00;;;;;;2088489;28;19917;-82
2022/12/14 13:05:41;;;;;;;0.20;0.20;;;0.10;99.10;;;;;;2087964;28;20135;-82
2022/12/14 13:06:52;;;;;;;0.50;0.50;;;0.10;98.70;;;;;;2088351;28;20052;-82
2022/12/14 13:08:00;;;;;;;0.57;0.57;;;0.10;99.00;;;;;;2089509;28;20475;-81
2022/12/14 13:09:27;;;;;;;0.20;0.20;;;0.10;99.10;;;;;;2089249;28;20021;-81
2022/12/14 13:10:33;;;;;;;0.30;0.30;;;0.00;99.50;;;;;;2091234;28;20368;-82
2022/12/14 13:11:39;;;;;;;3.50;0.88;;;0.00;99.20;;;;;;2087728;28;20040;-82
2022/12/14 13:12:47;;;;;;;0.45;0.45;;;0.00;99.20;;;;;;2096799;28;20052;-82
2022/12/14 13:13:52;;;;;;;0.68;0.65;;;0.00;99.10;;;;;;2080379;28;20034;-82
2022/12/14 13:14:55;;;;;;;0.70;0.52;;;0.10;99.40;;;;;;2081609;28;20030;-81
2022/12/14 13:16:14;;;;;;;0.50;0.50;;;0.00;99.40;;;;;;2086358;28;20518;-81
2022/12/14 13:17:20;;;;;;;6.63;1.70;;;0.00;99.40;;;;;;2089395;28;20021;-81
2022/12/14 13:18:31;;;;;;;1.60;1.10;;;0.00;99.00;;;;;;2080361;28;20022;-82
2022/12/14 13:19:48;;;;;;;2.47;1.05;;;0.00;99.10;;;;;;2096347;28;20025;-81
2022/12/14 13:20:49;;;;;;;0.20;0.20;;;0.00;99.10;;;;;;2094679;28;20463;-82
2022/12/14 13:21:51;;;;;;;0.38;0.38;;;0.00;99.00;;;;;;2086980;28;20096;-80
2022/12/14 13:22:53;;;;;;;0.47;0.47;;;0.00;99.10;;;;;;2086679;28;20038;-81
2022/12/14 13:23:54;;;;;;;0.40;0.40;;;0.00;99.50;;;;;;2086832;28;20018;-81
2022/12/14 13:24:58;;;;;;;4.63;1.03;;;0.00;99.30;;;;;;2078485;28;20040;-82
2022/12/14 13:26:19;;;;;;;0.20;0.20;;;0.00;99.40;;;;;;2095084;28;20711;-82
2022/12/14 13:27:32;;;;;;;1.35;1.00;;;0.10;99.70;;;;;;2089373;28;20454;-81
2022/12/14 13:29:18;;;;;;;1.60;0.43;;;0.00;99.60;;;;;;2096211;28;20025;-81
2022/12/14 13:30:22;;;;;;;0.30;0.30;;;0.00;99.50;;;;;;2102982;28;20147;-81
2022/12/14 13:31:42;;;;;;;0.17;0.17;;;0.00;99.50;;;;;;2094730;28;20462;-81
2022/12/14 13:33:21;;;;;;;2.80;1.10;;;0.10;99.40;;;;;;2094937;28;20051;-81
2022/12/14 13:34:40;;;;;;;0.77;0.75;;;0.10;99.50;;;;;;2075251;28;20046;-81
2022/12/14 13:36:12;;;;;;;0.68;0.60;;;0.10;99.60;;;;;;2088563;28;20018;-81
2022/12/14 13:37:41;;;;;;;0.70;0.70;;;0.10;99.30;;;;;;2095313;28;20024;-81
2022/12/14 13:38:47;;;;;;;1.35;1.25;;;0.10;99.10;;;;;;2098985;28;20035;-82
2022/12/14 13:40:01;;;;;;;0.28;0.28;;;0.10;99.00;;;;;;2087495;28;20078;-81
2022/12/14 13:41:32;;;;;;;0.77;0.77;;;0.10;99.40;;;;;;2090039;28;20032;-82
2022/12/14 13:43:04;;;;;;;0.85;0.68;;;0.10;99.20;;;;;;2090216;28;20454;-81
2022/12/14 13:44:41;;;;;;;1.95;1.10;;;0.10;99.40;;;;;;2090672;28;20021;-82
2022/12/14 13:45:45;;;;;;;3.67;0.77;;;0.10;99.30;;;;;;2096484;28;20036;-81
2022/12/14 13:46:59;;;;;;;0.47;0.47;;;0.10;99.40;;;;;;2094437;28;20021;-81
2022/12/14 13:48:05;;;;;;;2.13;1.65;;;0.10;99.40;;;;;;2090340;28;20084;-81
2022/12/14 13:49:15;;;;;;;0.45;0.45;;;0.10;99.20;;;;;;2095023;28;20029;-81
2022/12/14 13:50:33;;;;;;;0.40;0.40;;;0.10;99.00;;;;;;2087837;28;20041;-82
2022/12/14 13:51:38;;;;;;;0.20;0.20;;;0.20;98.80;;;;;;2088517;28;20036;-81
2022/12/14 13:52:46;;;;;;;0.85;0.60;;;0.10;98.80;;;;;;2087378;28;20084;-81
2022/12/14 13:53:49;;;;;;;0.32;0.32;;;0.20;98.60;;;;;;2095318;28;20025;-81
2022/12/14 13:54:51;;;;;;;22.83;1.48;;;0.20;98.70;;;;;;2103519;28;20055;-81
2022/12/14 13:55:55;;;;;;;0.43;0.43;;;0.20;98.80;;;;;;2102296;28;20031;-81
2022/12/14 13:57:12;;;;;;;0.68;0.68;;;0.20;98.90;;;;;;2086909;28;20017;-81
2022/12/14 13:58:38;;;;;;;1.33;0.82;;;0.20;99.10;;;;;;2097137;28;20032;-81
2022/12/14 13:59:49;;;;;;;0.47;0.47;;;0.20;98.90;;;;;;2103017;28;20124;-81
2022/12/14 14:01:05;;;;;;;2.45;0.45;;;0.20;98.70;;;;;;2103267;28;20111;-81
2022/12/14 14:02:26;;;;;;;7.20;0.93;;;0.20;99.10;;;;;;2096974;28;20044;-81
2022/12/14 14:03:38;;;;;;;0.28;0.28;;;0.10;99.10;;;;;;2089497;28;20102;-82
2022/12/14 14:04:41;;;;;;;0.45;0.45;;;0.10;99.00;;;;;;2089342;28;20033;-81
2022/12/14 14:05:44;;;;;;;6.15;0.90;;;0.10;98.90;;;;;;2086782;28;20060;-82
2022/12/14 14:06:53;;;;;;;0.30;0.30;;;0.20;99.50;;;;;;2086734;28;20096;-81
2022/12/14 14:08:01;;;;;;;0.55;0.55;;;0.10;99.30;;;;;;2087113;28;20097;-81
2022/12/14 14:09:37;;;;;;;1.40;1.30;;;0.10;99.30;;;;;;2094628;28;20047;-81
2022/12/14 14:10:40;;;;;;;1.35;0.57;;;0.10;99.40;;;;;;2069403;28;20046;-82
2022/12/14 14:11:41;;;;;;;0.50;0.50;;;0.10;99.50;;;;;;2061523;28;20115;-82
2022/12/14 14:12:42;;;;;;;0.40;0.40;;;0.20;99.40;;;;;;2057905;28;20031;-81
2022/12/14 14:13:43;;;;;;;;;;;0.20;99.30;;;;;;2087329;28;20132;-81
2022/12/14 14:14:47;;;;;;;2.50;1.20;;;0.10;98.90;;;;;;2085941;28;19912;-82
2022/12/14 14:15:52;;;;;;;1.63;1.33;;;0.20;98.90;;;;;;2085774;28;20036;-81
2022/12/14 14:17:01;;;;;;;0.45;0.45;;;0.20;99.00;;;;;;2086394;28;20037;-81
2022/12/14 14:18:15;;;;;;;2.38;0.65;;;0.20;99.00;;;;;;2096004;28;20036;-81
2022/12/14 14:19:25;;;;;;;1.27;1.10;;;0.20;99.20;;;;;;2097727;28;20031;-82
2022/12/14 14:20:41;;;;;;;1.20;1.15;;;0.20;99.00;;;;;;2103729;28;20024;-82
2022/12/14 14:21:58;;;;;;;1.80;1.40;;;0.20;99.20;;;;;;2104427;28;20052;-82
2022/12/14 14:23:14;;;;;;;1.15;0.60;;;0.20;99.10;;;;;;2103533;28;20119;-82
2022/12/14 14:24:15;;;;;;;1.08;0.50;;;0.20;99.10;;;;;;2096965;28;20021;-82
2022/12/14 14:25:39;;;;;;;2.28;1.20;;;0.20;99.10;;;;;;2087447;28;20017;-82
2022/12/14 14:26:59;;;;;;;1.40;0.77;;;0.20;99.10;;;;;;2098732;28;20036;-81
2022/12/14 14:28:00;;;;;;;2.22;1.00;;;0.20;98.80;;;;;;2112338;28;20024;-82
2022/12/14 14:29:42;;;;;;;0.70;0.40;;;0.20;98.60;;;;;;2103232;28;20029;-82
2022/12/14 14:30:53;;;;;;;0.68;0.50;;;0.20;99.10;;;;;;2086717;28;20038;-81
2022/12/14 14:31:58;;;;;;;0.40;0.40;;;0.20;99.50;;;;;;2078409;28;20077;-82
2022/12/14 14:32:59;;;;;;;0.50;0.50;;;0.30;99.90;;;;;;2081688;28;20115;-82
2022/12/14 14:34:00;;;;;;;1.15;0.68;;;0.20;99.60;;;;;;2103678;28;20088;-82
2022/12/14 14:35:24;;;;;;;0.10;0.10;;;0.20;99.50;;;;;;2103364;28;20094;-81
2022/12/14 14:36:44;;;;;;;2.17;0.98;;;0.20;99.40;;;;;;2089548;28;20057;-81
2022/12/14 14:37:58;;;;;;;2.20;1.80;;;0.20;99.30;;;;;;2097634;28;20395;-81
2022/12/14 14:39:05;;;;;;;0.40;0.40;;;0.20;99.00;;;;;;2100506;28;20074;-81
2022/12/14 14:40:19;;;;;;;0.50;0.50;;;0.20;99.10;;;;;;2108227;28;20027;-80
2022/12/14 14:41:36;;;;;;;7.70;2.15;;;0.20;99.10;;;;;;2100967;28;20060;-81
2022/12/14 14:42:55;;;;;;;0.20;0.20;;;0.20;99.00;;;;;;2091761;28;20033;-81
2022/12/14 14:43:59;;;;;;;0.25;0.25;;;0.30;99.00;;;;;;2086909;28;20036;-81
2022/12/14 14:45:02;;;;;;;0.10;0.10;;;0.30;99.00;;;;;;2077291;28;20502;-80
2022/12/14 14:46:07;;;;;;;0.22;0.22;;;0.30;99.10;;;;;;2084946;28;20072;-81
2022/12/14 14:47:35;;;;;;;0.30;0.30;;;0.30;99.20;;;;;;2092912;28;20068;-80
2022/12/14 14:48:50;;;;;;;0.93;0.90;;;0.30;99.00;;;;;;2095115;28;20055;-81
2022/12/14 14:50:02;;;;;;;0.90;0.55;;;0.30;99.00;;;;;;2085291;28;20031;-81
2022/12/14 14:51:13;;;;;;;;;;;0.30;99.10;;;;;;2088088;28;20033;-81
2022/12/14 14:52:38;;;;;;;0.30;0.30;;;0.30;98.80;;;;;;2093478;28;19908;-81
2022/12/14 14:53:39;;;;;;;1.00;0.63;;;0.30;98.80;;;;;;2095534;28;20086;-81
2022/12/14 14:54:40;;;;;;;1.95;0.57;;;0.30;99.00;;;;;;2084638;28;20046;-81
2022/12/14 14:55:55;;;;;;;2.23;0.77;;;0.30;98.70;;;;;;2084288;28;20029;-80
2022/12/14 14:56:59;;;;;;;0.85;0.85;;;0.30;98.80;;;;;;2088428;28;20033;-81
2022/12/14 14:58:06;;;;;;;1.17;0.95;;;0.30;99.10;;;;;;2084843;28;20060;-80
2022/12/14 14:59:18;;;;;;;0.63;0.50;;;0.30;99.10;;;;;;2085343;28;20361;-81
2022/12/14 15:00:19;;;;;;;;;;;0.30;99.00;;;;;;2088249;28;20025;-81
2022/12/14 15:01:26;;;;;;;0.50;0.50;;;0.30;99.00;;;;;;2101093;28;20008;-81
2022/12/14 15:02:37;;;;;;;0.68;0.60;;;0.30;99.10;;;;;;2100656;28;20036;-80
2022/12/14 15:03:51;;;;;;;0.63;0.63;;;0.30;99.30;;;;;;2094392;28;20032;-81
2022/12/14 15:04:54;;;;;;;0.45;0.45;;;0.30;99.50;;;;;;2094444;28;20017;-81
2022/12/14 15:05:56;;;;;;;0.63;0.63;;;0.30;99.50;;;;;;2092675;28;20036;-81
2022/12/14 15:07:01;;;;;;;;;;;0.30;99.50;;;;;;2085457;28;20057;-81
2022/12/14 15:08:03;;;;;;;2.08;0.30;;;0.30;99.80;;;;;;2092956;28;19904;-81
2022/12/14 15:09:10;;;;;;;0.40;0.40;;;0.30;99.70;;;;;;2091573;28;20035;-81
2022/12/14 15:10:16;;;;;;;3.80;0.77;;;0.30;99.80;;;;;;2092250;28;20037;-81
2022/12/14 15:11:20;;;;;;;3.72;1.10;;;0.30;99.50;;;;;;2084731;28;20025;-81
2022/12/14 15:12:48;;;;;;;1.67;0.60;;;0.30;99.40;;;;;;2084855;28;20045;-81
2022/12/14 15:13:59;;;;;;;0.35;0.35;;;0.30;99.40;;;;;;2092140;28;20513;-81
2022/12/14 15:15:29;;;;;;;0.32;0.32;;;0.30;99.50;;;;;;2078646;28;20029;-81
2022/12/14 15:16:39;;;;;;;1.70;0.90;;;0.30;99.50;;;;;;2090798;28;20036;-81
2022/12/14 15:17:40;;;;;;;0.63;0.63;;;0.30;99.30;;;;;;2085322;28;20303;-81
2022/12/14 15:18:40;;;;;;;1.50;1.03;;;0.30;99.30;;;;;;2092640;28;20025;-81
2022/12/14 15:19:55;;;;;;;1.37;0.97;;;0.30;99.30;;;;;;2084767;28;20053;-81
2022/12/14 15:21:00;;;;;;;0.63;0.63;;;0.30;99.30;;;;;;2096260;28;20025;-81
2022/12/14 15:22:14;;;;;;;0.57;0.47;;;0.30;99.20;;;;;;2100894;28;20483;-81
2022/12/14 15:23:15;;;;;;;0.40;0.40;;;0.40;99.00;;;;;;2093850;28;20040;-81
2022/12/14 15:24:16;;;;;;;0.37;0.37;;;0.40;98.90;;;;;;2084834;28;20032;-81
2022/12/14 15:25:27;;;;;;;0.40;0.40;;;0.40;98.90;;;;;;2092876;28;20090;-81
2022/12/14 15:26:32;;;;;;;1.02;0.50;;;0.40;98.90;;;;;;2094719;28;20262;-81
2022/12/14 15:27:35;;;;;;;0.47;0.45;;;0.40;98.90;;;;;;2093769;28;20021;-81
2022/12/14 15:28:37;;;;;;;0.20;0.20;;;0.40;99.00;;;;;;2093622;28;20033;-81
2022/12/14 15:29:38;;;;;;;1.67;1.00;;;0.40;98.90;;;;;;2092321;28;20443;-81
2022/12/14 15:30:46;;;;;;;2.00;0.77;;;0.40;98.90;;;;;;2084816;28;20068;-81
2022/12/14 15:31:50;;;;;;;0.30;0.30;;;0.40;99.00;;;;;;2086554;28;20037;-81
2022/12/14 15:33:08;;;;;;;0.20;0.20;;;0.40;99.00;;;;;;2085073;28;20368;-81
2022/12/14 15:34:27;;;;;;;0.52;0.52;;;0.40;98.90;;;;;;2088950;28;20037;-81
2022/12/14 15:35:49;;;;;;;0.30;0.20;;;0.40;98.80;;;;;;2086668;28;20022;-81
2022/12/14 15:36:51;;;;;;;0.22;0.22;;;0.40;98.90;;;;;;2091164;28;20057;-81
2022/12/14 15:38:16;;;;;;;0.20;0.20;;;0.40;98.90;;;;;;2093227;28;20360;-81
2022/12/14 15:39:31;;;;;;;0.63;0.52;;;0.40;99.00;;;;;;2088465;28;20021;-81
2022/12/14 15:40:34;;;;;;;0.45;0.45;;;0.40;99.10;;;;;;2095115;28;20029;-81
2022/12/14 15:41:34;;;;;;;0.43;0.43;;;0.40;98.90;;;;;;2100624;28;20482;-81
2022/12/14 15:42:48;;;;;;;1.43;1.33;;;0.40;98.90;;;;;;2083254;28;20021;-81
2022/12/14 15:43:50;;;;;;;2.08;0.88;;;0.40;98.90;;;;;;2095873;28;20341;-81
2022/12/14 15:44:54;;;;;;;1.15;1.02;;;0.40;98.90;;;;;;2100862;28;20016;-81
2022/12/14 15:45:59;;;;;;;0.13;0.13;;;0.40;98.90;;;;;;2084702;28;20124;-81
2022/12/14 15:47:00;;;;;;;1.65;1.05;;;0.40;98.80;;;;;;2085818;28;20034;-81
2022/12/14 15:48:22;;;;;;;0.43;0.37;;;0.40;98.80;;;;;;2101277;28;20104;-81
2022/12/14 15:49:23;;;;;;;3.53;1.42;;;0.40;98.90;;;;;;2091985;28;20079;-81
2022/12/14 15:50:27;;;;;;;2.40;0.93;;;0.40;99.00;;;;;;2076473;28;20038;-81
2022/12/14 15:51:31;;;;;;;0.30;0.30;;;0.40;99.10;;;;;;2085337;28;20028;-81
2022/12/14 15:52:33;;;;;;;0.60;0.60;;;0.40;98.90;;;;;;2092878;28;20036;-81
2022/12/14 15:53:47;;;;;;;2.22;1.45;;;0.40;98.90;;;;;;2093127;28;20021;-81
2022/12/14 15:54:48;;;;;;;0.35;0.32;;;0.40;99.00;;;;;;2101026;28;20053;-81
2022/12/14 15:55:51;;;;;;;1.52;0.90;;;0.40;99.00;;;;;;2083975;28;20040;-81
2022/12/14 15:56:57;;;;;;;1.90;0.82;;;0.40;99.10;;;;;;2085414;28;20041;-81
2022/12/14 15:58:18;;;;;;;0.30;0.30;;;0.30;99.00;;;;;;2085809;28;20042;-81
2022/12/14 15:59:29;;;;;;;0.68;0.68;;;0.40;99.00;;;;;;2095970;28;20071;-81
2022/12/14 16:00:32;;;;;;;0.65;0.55;;;0.40;99.20;;;;;;2093013;28;20459;-81
2022/12/14 16:01:39;;;;;;;0.20;0.20;;;0.40;99.20;;;;;;2085230;28;20537;-81
2022/12/14 16:02:42;;;;;;;0.75;0.47;;;0.40;99.00;;;;;;2100125;28;20032;-81
2022/12/14 16:03:47;;;;;;;1.35;0.63;;;0.40;98.90;;;;;;2101760;28;20035;-81
2022/12/14 16:04:49;;;;;;;1.80;0.80;;;0.40;99.00;;;;;;2101235;28;20040;-81
2022/12/14 16:05:49;;;;;;;0.40;0.40;;;0.30;98.90;;;;;;2093111;28;20079;-81
2022/12/14 16:06:55;;;;;;;1.93;0.67;;;0.40;98.80;;;;;;2093079;28;20375;-81